Time;durP1;ratioP1;P1;durP2;ratioP2;P2;SDS_P1;SDS_P2;PMS_P1;PMS_P2;Temp;Humidity;BMP_temperature;BMP_pressure;BME280_temperature;BME280_humidity;BME280_pressure;Samples;Min_cycle;Max_cycle;Signal;HPM_P1;HPM_P2
2023/02/10 00:01:14;;;;;;;;;;;;;;;-3.76;52.86;94270.56;2064694;69;20177;-72
2023/02/10 00:03:39;;;;;;;;;;;;;;;-3.75;52.19;94269.38;2052038;69;20089;-74
2023/02/10 00:06:06;;;;;;;;;;;;;;;-3.74;51.73;94270.88;2052163;70;20482;-70
2023/02/10 00:08:32;;;;;;;;;;;;;;;-3.71;51.79;94278.19;2054500;69;20145;-71
2023/02/10 00:11:02;;;;;;;;;;;;;;;-3.72;50.87;94267.63;2054505;69;20146;-70
2023/02/10 00:13:28;;;;;;;;;;;;;;;-3.69;51.73;94275.69;2052351;70;20143;-71
2023/02/10 00:15:54;;;;;;;;;;;;;;;-4.03;52.79;94277.22;2053892;70;20197;-71
2023/02/10 00:18:19;;;;;;;;;;;;;;;-3.93;53.07;94283.38;2054768;70;20157;-69
2023/02/10 00:20:45;;;;;;;;;;;;;;;-3.86;52.41;94293.97;2067800;69;20501;-71
2023/02/10 00:23:11;;;;;;;;;;;;;;;-3.92;52.66;94298.63;2065360;69;20059;-70
2023/02/10 00:25:36;;;;;;;;;;;;;;;-3.80;51.86;94308.59;2052323;70;20059;-67
2023/02/10 00:28:02;;;;;;;;;;;;;;;-3.81;52.27;94315.31;2052610;70;20265;-69
2023/02/10 00:30:28;;;;;;;;;;;;;;;-3.84;51.46;94317.03;2052067;70;20050;-71
2023/02/10 00:32:53;;;;;;;;;;;;;;;-3.83;51.81;94317.78;2064887;69;20061;-71
2023/02/10 00:35:19;;;;;;;;;;;;;;;-3.82;50.83;94322.03;2051941;70;20488;-74
2023/02/10 00:37:44;;;;;;;;;;;;;;;-3.85;50.31;94323.78;2065244;69;20493;-73
2023/02/10 00:40:10;;;;;;;;;;;;;;;-3.79;50.17;94321.09;2052283;70;20090;-70
2023/02/10 00:42:35;;;;;;;;;;;;;;;-3.86;51.59;94321.47;2051868;70;20083;-69
2023/02/10 00:45:03;;;;;;;;;;;;;;;-3.68;51.83;94317.75;2054252;70;20121;-69
2023/02/10 00:47:28;;;;;;;;;;;;;;;-3.99;51.96;94315.53;2054198;70;20559;-70
2023/02/10 00:49:54;;;;;;;;;;;;;;;-3.76;51.07;94311.09;2064862;69;20502;-69
2023/02/10 00:52:21;;;;;;;;;;;;;;;-3.54;49.58;94311.44;2052144;70;20088;-70
2023/02/10 00:54:46;;;;;;;;;;;;;;;-3.54;49.43;94319.69;2052471;70;20129;-70
2023/02/10 00:57:12;;;;;;;;;;;;;;;-3.82;48.75;94322.03;2064538;69;20177;-69
2023/02/10 00:59:37;;;;;;;;;;;;;;;-3.50;48.05;94325.75;2049835;70;20055;-70
2023/02/10 01:02:03;;;;;;;;;;;;;;;-3.32;48.29;94325.50;2052081;69;20090;-69
2023/02/10 01:04:28;;;;;;;;;;;;;;;-3.33;48.24;94331.50;2074839;69;20143;-73
2023/02/10 01:06:54;;;;;;;;;;;;;;;-3.26;47.39;94335.81;2066703;69;20055;-71
2023/02/10 01:09:19;;;;;;;;;;;;;;;-3.13;46.72;94348.00;2051959;69;20532;-70
2023/02/10 01:11:45;;;;;;;;;;;;;;;-3.24;46.63;94350.63;2064680;69;20091;-71
2023/02/10 01:14:10;;;;;;;;;;;;;;;-3.36;46.94;94349.72;2054205;70;20154;-70
2023/02/10 01:16:36;;;;;;;;;;;;;;;-3.77;48.33;94350.88;2053863;70;20102;-70
2023/02/10 01:19:02;;;;;;;;;;;;;;;-3.49;47.74;94354.03;2053860;70;20151;-69
2023/02/10 01:21:29;;;;;;;;;;;;;;;-3.56;47.81;94352.47;2068348;69;20054;-70
2023/02/10 01:23:55;;;;;;;;;;;;;;;-3.54;48.77;94360.22;2067681;69;20057;-70
2023/02/10 01:26:21;;;;;;;;;;;;;;;-3.50;48.26;94358.78;2054731;70;20067;-70
2023/02/10 01:28:47;;;;;;;;;;;;;;;-3.40;47.16;94364.94;2064618;69;20054;-69
2023/02/10 01:31:14;;;;;;;;;;;;;;;-3.42;48.74;94359.16;2051530;70;20109;-70
2023/02/10 01:33:41;;;;;;;;;;;;;;;-3.36;48.27;94362.72;2064719;69;20538;-70
2023/02/10 01:36:07;;;;;;;;;;;;;;;-3.37;48.45;94363.97;2051707;70;20078;-69
2023/02/10 01:38:33;;;;;;;;;;;;;;;-3.30;47.71;94366.31;2065003;69;20047;-71
2023/02/10 01:40:59;;;;;;;;;;;;;;;-3.18;46.70;94365.22;2064751;69;20065;-70
2023/02/10 01:43:25;;;;;;;;;;;;;;;-3.23;46.98;94363.16;2064942;69;20429;-72
2023/02/10 01:45:52;;;;;;;;;;;;;;;-3.37;47.35;94364.72;2055392;69;20172;-69
2023/02/10 01:48:21;;;;;;;;;;;;;;;-3.36;46.68;94346.97;2054950;70;20334;-68
2023/02/10 01:50:50;;;;;;;;;;;;;;;-3.09;45.73;94367.84;2068388;69;20054;-70
2023/02/10 01:53:15;;;;;;;;;;;;;;;-3.10;45.07;94354.56;2067697;69;20057;-68
2023/02/10 01:55:44;;;;;;;;;;;;;;;-3.08;44.48;94355.59;2052127;69;20058;-70
2023/02/10 01:58:13;;;;;;;;;;;;;;;-2.95;44.27;94346.22;2066837;69;20176;-69
2023/02/10 02:00:38;;;;;;;;;;;;;;;-3.35;45.71;94345.72;2065698;69;20053;-68
2023/02/10 02:03:04;;;;;;;;;;;;;;;-3.32;45.88;94355.78;2067483;69;20114;-69
2023/02/10 02:05:31;;;;;;;;;;;;;;;-3.31;45.85;94351.03;2066035;69;20549;-70
2023/02/10 02:08:00;;;;;;;;;;;;;;;-3.19;45.42;94351.94;2068328;69;20077;-69
2023/02/10 02:10:37;;;;;;;;;;;;;;;-3.17;46.14;94358.47;2054904;70;20065;-69
2023/02/10 02:13:09;;;;;;;;;;;;;;;-3.26;47.57;94346.84;2053332;69;20106;-69
2023/02/10 02:15:50;;;;;;;;;;;;;;;-3.13;45.88;94355.53;2051019;70;20094;-69
2023/02/10 02:18:23;;;;;;;;;;;;;;;-4.09;48.83;94359.66;2053339;69;20059;-70
2023/02/10 02:21:09;;;;;;;;;;;;;;;-3.75;48.68;94356.69;2053354;69;20485;-70
2023/02/10 02:23:45;;;;;;;;;;;;;;;-3.66;48.22;94370.34;2055383;70;20500;-69
2023/02/10 02:26:17;;;;;;;;;;;;;;;-3.83;48.06;94378.34;2053612;69;20509;-68
2023/02/10 02:28:53;;;;;;;;;;;;;;;-3.74;48.58;94383.72;2067453;69;20050;-68
2023/02/10 02:31:37;;;;;;;;;;;;;;;-3.89;48.43;94388.50;2055049;69;20057;-69
2023/02/10 02:34:13;;;;;;;;;;;;;;;-3.68;48.08;94376.31;2063813;69;20096;-69
2023/02/10 02:36:41;;;;;;;;;;;;;;;-3.71;47.72;94379.25;2053491;69;20119;-70
2023/02/10 02:39:07;;;;;;;;;;;;;;;-3.78;47.95;94383.16;2051429;69;20046;-70
2023/02/10 02:41:33;;;;;;;;;;;;;;;-3.52;46.75;94386.06;2051442;70;20102;-69
2023/02/10 02:44:00;;;;;;;;;;;;;;;-3.42;45.83;94381.94;2054393;69;20100;-70
2023/02/10 02:46:25;;;;;;;;;;;;;;;-3.35;45.44;94378.03;2053196;69;20054;-70
2023/02/10 02:48:57;;;;;;;;;;;;;;;-3.38;45.97;94381.75;2051473;70;20483;-70
2023/02/10 02:51:23;;;;;;;;;;;;;;;-3.45;46.95;94382.13;2064794;69;20103;-69
2023/02/10 02:53:51;;;;;;;;;;;;;;;-3.55;46.80;94370.50;2065725;69;20047;-70
2023/02/10 02:56:28;;;;;;;;;;;;;;;-3.48;46.96;94372.06;2064630;69;20047;-69
2023/02/10 02:58:57;;;;;;;;;;;;;;;-3.37;46.73;94367.50;2052177;70;20146;-68
2023/02/10 03:01:30;;;;;;;;;;;;;;;-3.25;44.51;94371.16;2051867;69;20067;-70
2023/02/10 03:03:57;;;;;;;;;;;;;;;-3.59;46.53;94378.19;2052531;70;20124;-71
2023/02/10 03:06:22;;;;;;;;;;;;;;;-3.69;47.64;94374.03;2051816;70;20074;-69
2023/02/10 03:08:48;;;;;;;;;;;;;;;-3.65;47.11;94386.38;2051967;70;20062;-70
2023/02/10 03:11:13;;;;;;;;;;;;;;;-3.63;47.24;94388.63;2051709;70;20493;-69
2023/02/10 03:13:39;;;;;;;;;;;;;;;-3.66;47.06;94389.59;2051527;70;20065;-69
2023/02/10 03:16:05;;;;;;;;;;;;;;;-4.65;50.88;94397.19;2052722;70;20433;-68
2023/02/10 03:18:30;;;;;;;;;;;;;;;-4.57;49.94;94405.06;2054942;70;20061;-71
2023/02/10 03:20:55;;;;;;;;;;;;;;;-4.21;49.31;94396.47;2055221;69;20046;-70
2023/02/10 03:23:24;;;;;;;;;;;;;;;-3.98;49.04;94402.38;2054895;69;20068;-71
2023/02/10 03:25:49;;;;;;;;;;;;;;;-4.04;48.72;94409.75;2052624;70;20051;-69
2023/02/10 03:28:15;;;;;;;;;;;;;;;-4.14;49.75;94404.34;2066002;69;20076;-70
2023/02/10 03:30:47;;;;;;;;;;;;;;;-4.32;49.00;94412.75;2055279;70;20398;-71
2023/02/10 03:33:13;;;;;;;;;;;;;;;-4.20;49.64;94409.00;2054656;70;20054;-70
2023/02/10 03:35:39;;;;;;;;;;;;;;;-4.13;49.38;94410.59;2055256;70;20050;-70
2023/02/10 03:38:05;;;;;;;;;;;;;;;-4.39;50.08;94407.66;2054912;70;20046;-70
2023/02/10 03:40:30;;;;;;;;;;;;;;;-4.49;50.33;94406.97;2064952;69;20165;-70
2023/02/10 03:42:56;;;;;;;;;;;;;;;-4.29;49.54;94411.81;2052485;70;20113;-70
2023/02/10 03:45:21;;;;;;;;;;;;;;;-4.26;49.91;94407.34;2052158;70;20089;-70
2023/02/10 03:47:47;;;;;;;;;;;;;;;-4.26;49.82;94408.16;2052021;70;20046;-70
2023/02/10 03:50:12;;;;;;;;;;;;;;;-4.20;50.34;94406.25;2052293;70;20082;-69
2023/02/10 03:52:38;;;;;;;;;;;;;;;-4.20;49.39;94405.47;2055586;69;20058;-70
2023/02/10 03:55:03;;;;;;;;;;;;;;;-4.72;51.03;94396.78;2053149;70;20078;-70
2023/02/10 03:57:29;;;;;;;;;;;;;;;-4.54;50.48;94415.84;2052141;69;20433;-70
2023/02/10 03:59:54;;;;;;;;;;;;;;;-4.42;50.77;94420.34;2052095;70;20055;-70
2023/02/10 04:02:20;;;;;;;;;;;;;;;-4.45;51.47;94415.03;2054279;70;20105;-70
2023/02/10 04:04:45;;;;;;;;;;;;;;;-4.53;50.51;94419.41;2055065;70;20053;-68
2023/02/10 04:07:11;;;;;;;;;;;;;;;-4.49;51.60;94425.44;2055037;70;20067;-70
2023/02/10 04:09:36;;;;;;;;;;;;;;;-4.39;51.42;94422.16;2055222;70;20108;-70
2023/02/10 04:12:02;;;;;;;;;;;;;;;-4.44;51.42;94424.81;2055413;70;20115;-71
2023/02/10 04:14:27;;;;;;;;;;;;;;;-4.48;50.81;94427.75;2053971;70;20097;-71
2023/02/10 04:16:53;;;;;;;;;;;;;;;-4.69;51.89;94437.06;2052084;69;20135;-71
2023/02/10 04:19:18;;;;;;;;;;;;;;;-4.63;51.38;94429.69;2065086;69;20054;-69
2023/02/10 04:21:44;;;;;;;;;;;;;;;-4.76;51.52;94435.44;2052493;70;20145;-69
2023/02/10 04:24:09;;;;;;;;;;;;;;;-4.71;52.22;94434.78;2052694;69;20457;-69
2023/02/10 04:26:35;;;;;;;;;;;;;;;-4.75;51.79;94434.22;2055385;70;20047;-69
2023/02/10 04:29:00;;;;;;;;;;;;;;;-5.09;52.62;94430.00;2055630;70;20105;-70
2023/02/10 04:31:26;;;;;;;;;;;;;;;-4.94;52.32;94433.59;2055628;70;20059;-70
2023/02/10 04:33:51;;;;;;;;;;;;;;;-4.87;52.61;94427.72;2067376;69;20159;-70
2023/02/10 04:36:17;;;;;;;;;;;;;;;-4.87;52.99;94433.22;2055349;69;20466;-70
2023/02/10 04:38:42;;;;;;;;;;;;;;;-4.84;53.21;94434.28;2055388;70;20076;-70
2023/02/10 04:41:07;;;;;;;;;;;;;;;-4.67;52.22;94432.63;2055166;69;20049;-70
2023/02/10 04:43:33;;;;;;;;;;;;;;;-4.81;52.98;94427.84;2055422;69;20422;-71
2023/02/10 04:45:59;;;;;;;;;;;;;;;-4.91;51.91;94432.63;2055115;70;20112;-70
2023/02/10 04:48:25;;;;;;;;;;;;;;;-5.29;53.24;94443.56;2068253;69;20084;-71
2023/02/10 04:50:52;;;;;;;;;;;;;;;-5.06;53.34;94442.06;2052438;70;20093;-69
2023/02/10 04:53:17;;;;;;;;;;;;;;;-4.96;52.80;94447.00;2064966;69;20039;-68
2023/02/10 04:55:43;;;;;;;;;;;;;;;-4.93;52.79;94440.59;2053860;70;20154;-70
2023/02/10 04:58:08;;;;;;;;;;;;;;;-5.00;53.13;94449.19;2054472;70;20074;-69
2023/02/10 05:00:34;;;;;;;;;;;;;;;-5.04;53.41;94453.31;2052383;70;20043;-69
2023/02/10 05:02:59;;;;;;;;;;;;;;;-4.99;54.43;94452.72;2052395;70;20488;-70
2023/02/10 05:05:25;;;;;;;;;;;;;;;-5.03;54.22;94461.13;2054175;70;20046;-72
2023/02/10 05:07:51;;;;;;;;;;;;;;;-5.11;53.47;94446.19;2055617;69;20066;-71
2023/02/10 05:10:16;;;;;;;;;;;;;;;-5.31;54.15;94446.78;2055163;70;20054;-73
2023/02/10 05:12:42;;;;;;;;;;;;;;;-5.21;53.67;94439.25;2053596;70;20047;-70
2023/02/10 05:15:08;;;;;;;;;;;;;;;-5.09;54.27;94445.72;2052142;70;20046;-70
2023/02/10 05:17:33;;;;;;;;;;;;;;;-5.12;54.17;94433.69;2051669;70;20087;-72
2023/02/10 05:19:59;;;;;;;;;;;;;;;-5.11;54.20;94437.97;2055078;70;20050;-71
2023/02/10 05:22:29;;;;;;;;;;;;;;;-5.23;54.34;94438.94;2054286;70;20054;-69
2023/02/10 05:24:56;;;;;;;;;;;;;;;-5.19;54.23;94436.78;2052211;70;20537;-70
2023/02/10 05:27:23;;;;;;;;;;;;;;;-5.09;54.26;94442.97;2052167;70;20090;-69
2023/02/10 05:29:49;;;;;;;;;;;;;;;-5.13;53.85;94452.16;2052254;70;20046;-70
2023/02/10 05:32:14;;;;;;;;;;;;;;;-5.51;54.61;94452.81;2051841;70;20501;-70
2023/02/10 05:34:39;;;;;;;;;;;;;;;-5.20;54.94;94452.50;2052707;70;20055;-71
2023/02/10 05:37:05;;;;;;;;;;;;;;;-5.41;56.12;94453.50;2052116;69;20054;-71
2023/02/10 05:39:30;;;;;;;;;;;;;;;-5.59;56.45;94462.59;2054601;69;20057;-72
2023/02/10 05:41:57;;;;;;;;;;;;;;;-5.47;55.79;94460.88;2054926;69;20046;-71
2023/02/10 05:44:24;;;;;;;;;;;;;;;-5.37;55.59;94465.84;2055497;70;20513;-72
2023/02/10 05:46:49;;;;;;;;;;;;;;;-5.30;55.65;94456.53;2065625;69;20205;-71
2023/02/10 05:49:15;;;;;;;;;;;;;;;-5.26;55.26;94456.38;2053931;70;20514;-70
2023/02/10 05:51:41;;;;;;;;;;;;;;;-5.63;56.44;94464.75;2053522;70;20046;-71
2023/02/10 05:54:07;;;;;;;;;;;;;;;-5.51;55.09;94461.03;2053406;70;20063;-70
2023/02/10 05:56:32;;;;;;;;;;;;;;;-5.51;55.42;94476.75;2055275;70;20502;-69
2023/02/10 05:58:58;;;;;;;;;;;;;;;-5.62;56.26;94478.00;2053627;69;20050;-69
2023/02/10 06:01:24;;;;;;;;;;;;;;;-5.45;56.49;94472.94;2052073;70;20127;-71
2023/02/10 06:03:49;;;;;;;;;;;;;;;-5.45;55.95;94472.13;2065092;69;20138;-70
2023/02/10 06:06:15;;;;;;;;;;;;;;;-5.37;54.64;94476.06;2052098;70;20065;-72
2023/02/10 06:08:40;;;;;;;;;;;;;;;-5.63;56.34;94481.22;2052775;70;20478;-70
2023/02/10 06:11:06;;;;;;;;;;;;;;;-5.62;55.62;94491.72;2054986;70;20190;-71
2023/02/10 06:13:31;;;;;;;;;;;;;;;-5.56;56.14;94499.34;2053120;70;20066;-72
2023/02/10 06:15:57;;;;;;;;;;;;;;;-5.47;54.80;94502.06;2067434;69;20051;-70
2023/02/10 06:18:22;;;;;;;;;;;;;;;-5.43;56.09;94500.66;2054474;69;20557;-72
2023/02/10 06:20:48;;;;;;;;;;;;;;;-5.92;57.77;94501.72;2055306;70;20050;-74
2023/02/10 06:23:14;;;;;;;;;;;;;;;-5.58;56.42;94505.31;2054705;70;20070;-69
2023/02/10 06:25:39;;;;;;;;;;;;;;;-5.68;57.49;94503.78;2052068;70;20055;-70
2023/02/10 06:28:05;;;;;;;;;;;;;;;-5.98;57.48;94509.06;2053925;70;20097;-71
2023/02/10 06:30:30;;;;;;;;;;;;;;;-5.57;55.87;94508.78;2055564;70;20039;-70
2023/02/10 06:32:56;;;;;;;;;;;;;;;-5.62;55.83;94508.19;2051977;69;20059;-70
2023/02/10 06:35:21;;;;;;;;;;;;;;;-5.56;57.21;94505.59;2051820;70;20422;-73
2023/02/10 06:37:47;;;;;;;;;;;;;;;-5.56;56.15;94510.31;2052209;70;20042;-72
2023/02/10 06:40:13;;;;;;;;;;;;;;;-5.56;56.94;94502.84;2052119;70;20103;-71
2023/02/10 06:42:39;;;;;;;;;;;;;;;-5.54;55.92;94514.13;2051975;70;20047;-70
2023/02/10 06:45:04;;;;;;;;;;;;;;;-5.50;55.09;94508.47;2051822;70;20042;-70
2023/02/10 06:47:30;;;;;;;;;;;;;;;-5.73;55.92;94510.66;2051981;70;20058;-71
2023/02/10 06:49:55;;;;;;;;;;;;;;;-5.63;56.88;94509.44;2052070;70;20054;-71
2023/02/10 06:52:24;;;;;;;;;;;;;;;-5.54;56.97;94516.09;2067216;69;20104;-71
2023/02/10 06:54:49;;;;;;;;;;;;;;;-5.41;56.68;94520.16;2055185;70;20204;-70
2023/02/10 06:57:15;;;;;;;;;;;;;;;-5.52;56.39;94525.41;2054261;69;20165;-70
2023/02/10 06:59:41;;;;;;;;;;;;;;;-5.53;56.07;94520.38;2051742;70;20050;-69
2023/02/10 07:02:09;;;;;;;;;;;;;;;-5.52;57.10;94525.41;2053618;70;20058;-70
2023/02/10 07:04:35;;;;;;;;;;;;;;;-5.56;56.40;94522.06;2054900;70;20066;-70
2023/02/10 07:07:03;;;;;;;;;;;;;;;-5.47;56.95;94524.00;2055462;70;20046;-69
2023/02/10 07:09:29;;;;;;;;;;;;;;;-5.46;55.95;94529.03;2053583;70;20045;-71
2023/02/10 07:11:54;;;;;;;;;;;;;;;-5.51;56.61;94528.91;2067599;69;20051;-70
2023/02/10 07:14:20;;;;;;;;;;;;;;;-5.46;56.31;94531.78;2051990;69;20058;-69
2023/02/10 07:16:47;;;;;;;;;;;;;;;-5.26;56.06;94528.50;2052238;69;20043;-70
2023/02/10 07:19:13;;;;;;;;;;;;;;;-5.42;56.32;94526.13;2053087;70;20046;-70
2023/02/10 07:21:38;;;;;;;;;;;;;;;-5.27;57.19;94515.22;2065491;69;20146;-69
2023/02/10 07:24:04;;;;;;;;;;;;;;;-5.31;56.98;94528.38;2051921;70;20063;-70
2023/02/10 07:26:29;;;;;;;;;;;;;;;-5.15;56.62;94530.75;2052148;70;20054;-71
2023/02/10 07:28:55;;;;;;;;;;;;;;;-5.51;57.80;94535.16;2055509;69;20555;-70
2023/02/10 07:31:23;;;;;;;;;;;;;;;-5.52;57.75;94543.84;2055010;69;20171;-70
2023/02/10 07:33:49;;;;;;;;;;;;;;;-5.64;57.86;94540.81;2052130;70;20073;-70
2023/02/10 07:36:15;;;;;;;;;;;;;;;-5.35;57.02;94549.75;2051834;70;20057;-70
2023/02/10 07:38:40;;;;;;;;;;;;;;;-5.63;58.52;94552.56;2051518;70;20135;-70
2023/02/10 07:41:06;;;;;;;;;;;;;;;-5.54;57.73;94555.31;2051852;70;20050;-69
2023/02/10 07:43:32;;;;;;;;;;;;;;;-5.40;56.90;94553.88;2051909;70;20115;-69
2023/02/10 07:46:09;;;;;;;;;;;;;;;-5.40;57.25;94559.38;2065133;69;20077;-70
2023/02/10 07:48:34;;;;;;;;;;;;;;;-5.63;56.96;94556.09;2054752;70;20448;-70
2023/02/10 07:50:59;;;;;;;;;;;;;;;-5.53;57.48;94558.81;2055272;70;20062;-70
2023/02/10 07:53:25;;;;;;;;;;;;;;;-5.46;56.88;94559.22;2052962;70;20051;-70
2023/02/10 07:55:50;;;;;;;;;;;;;;;-5.51;57.36;94550.84;2051753;70;20062;-70
2023/02/10 07:58:16;;;;;;;;;;;;;;;-5.34;57.61;94563.00;2051917;70;20142;-70
2023/02/10 08:00:41;;;;;;;;;;;;;;;-5.17;56.10;94568.91;2067966;69;20058;-70
2023/02/10 08:03:11;;;;;;;;;;;;;;;-5.16;55.81;94560.19;2052265;70;20108;-70
2023/02/10 08:05:36;;;;;;;;;;;;;;;-5.25;56.93;94570.47;2064357;69;20174;-71
2023/02/10 08:08:02;;;;;;;;;;;;;;;-5.05;56.40;94575.41;2051343;70;20118;-71
2023/02/10 08:10:27;;;;;;;;;;;;;;;-5.02;56.21;94571.75;2052345;70;20054;-70
2023/02/10 08:12:53;;;;;;;;;;;;;;;-5.07;56.77;94567.66;2052711;70;20158;-69
2023/02/10 08:15:20;;;;;;;;;;;;;;;-5.03;56.88;94575.72;2055640;69;20050;-71
2023/02/10 08:17:46;;;;;;;;;;;;;;;-4.96;56.37;94575.38;2054926;70;20055;-69
2023/02/10 08:20:11;;;;;;;;;;;;;;;-4.95;56.46;94574.94;2052600;70;20054;-71
2023/02/10 08:22:37;;;;;;;;;;;;;;;-4.89;56.23;94566.81;2054713;69;20073;-72
2023/02/10 08:25:03;;;;;;;;;;;;;;;-4.92;56.69;94575.97;2062951;69;20168;-70
2023/02/10 08:27:29;;;;;;;;;;;;;;;-4.88;55.53;94568.31;2054928;70;20469;-70
2023/02/10 08:29:55;;;;;;;;;;;;;;;-4.95;56.93;94572.19;2067533;69;20061;-69
2023/02/10 08:32:21;;;;;;;;;;;;;;;-4.77;56.77;94579.56;2053851;70;20075;-69
2023/02/10 08:34:47;;;;;;;;;;;;;;;-4.73;56.09;94585.63;2065950;69;20051;-71
2023/02/10 08:37:12;;;;;;;;;;;;;;;-4.63;56.72;94581.66;2055898;70;20054;-69
2023/02/10 08:39:38;;;;;;;;;;;;;;;-3.84;57.05;94578.47;2053990;70;20096;-69
2023/02/10 08:42:04;;;;;;;;;;;;;;;-3.40;56.64;94591.53;2053872;70;20074;-69
2023/02/10 08:44:30;;;;;;;;;;;;;;;-3.01;56.12;94587.94;2052442;70;20082;-69
2023/02/10 08:46:57;;;;;;;;;;;;;;;-2.71;55.19;94586.63;2052278;70;20049;-71
2023/02/10 08:49:24;;;;;;;;;;;;;;;-2.35;54.06;94581.84;2054636;69;20114;-68
2023/02/10 08:51:53;;;;;;;;;;;;;;;-1.83;53.30;94577.25;2055522;69;20085;-70
2023/02/10 08:54:19;;;;;;;;;;;;;;;-1.48;52.34;94565.31;2053506;69;20065;-70
2023/02/10 08:56:45;;;;;;;;;;;;;;;-1.27;51.39;94562.50;2054573;70;20070;-70
2023/02/10 08:59:10;;;;;;;;;;;;;;;-0.62;51.10;94562.75;2055597;70;20057;-70
2023/02/10 09:01:36;;;;;;;;;;;;;;;-0.77;48.54;94527.72;2053977;70;20067;-71
2023/02/10 09:04:02;;;;;;;;;;;;;;;-0.15;47.55;94560.50;2053575;69;20142;-71
2023/02/10 09:06:30;;;;;;;;;;;;;;;0.09;46.21;94560.88;2052204;70;20090;-71
2023/02/10 09:08:55;;;;;;;;;;;;;;;0.24;47.15;94563.44;2065232;69;20066;-71
2023/02/10 09:11:23;;;;;;;;;;;;;;;0.27;44.92;94570.75;2054640;69;20054;-71
2023/02/10 09:13:49;;;;;;;;;;;;;;;0.74;44.64;94573.91;2065258;69;20078;-71
2023/02/10 09:16:14;;;;;;;;;;;;;;;0.94;42.75;94567.38;2051696;70;20133;-71
2023/02/10 09:18:40;;;;;;;;;;;;;;;1.43;42.30;94565.88;2052258;70;20169;-71
2023/02/10 09:21:05;;;;;;;;;;;;;;;1.14;44.47;94567.13;2052016;70;20066;-71
2023/02/10 09:23:30;;;;;;;;;;;;;;;1.35;43.57;94564.09;2055063;70;20162;-71
2023/02/10 09:25:57;;;;;;;;;;;;;;;2.27;41.33;94557.31;2055476;69;20053;-72
2023/02/10 09:28:23;;;;;;;;;;;;;;;2.56;41.28;94557.91;2053647;70;20128;-72
2023/02/10 09:30:49;;;;;;;;;;;;;;;2.03;40.76;94557.16;2054726;69;20054;-72
2023/02/10 09:33:15;;;;;;;;;;;;;;;1.94;40.95;94551.88;2068584;69;20454;-72
2023/02/10 09:35:40;;;;;;;;;;;;;;;2.00;40.83;94556.13;2054802;69;20062;-71
2023/02/10 09:38:06;;;;;;;;;;;;;;;2.79;38.66;94558.56;2065400;69;20051;-72
2023/02/10 09:40:33;;;;;;;;;;;;;;;2.57;37.89;94553.91;2052256;70;20047;-72
2023/02/10 09:43:13;;;;;;;;;;;;;;;2.80;36.66;94558.06;2055041;70;20070;-72
2023/02/10 09:45:40;;;;;;;;;;;;;;;2.54;37.46;94566.78;2055682;70;20429;-72
2023/02/10 09:48:09;;;;;;;;;;;;;;;3.34;36.98;94564.22;2055634;70;20050;-72
2023/02/10 09:50:53;;;;;;;;;;;;;;;3.55;35.28;94554.94;2055766;70;20074;-72
2023/02/10 09:53:21;;;;;;;;;;;;;;;4.33;34.87;94561.72;2052223;69;20054;-72
2023/02/10 09:55:48;;;;;;;;;;;;;;;4.66;35.26;94561.81;2052043;70;20051;-72
2023/02/10 09:58:17;;;;;;;;;;;;;;;5.31;32.66;94561.41;2065726;69;20079;-72
2023/02/10 10:00:44;;;;;;;;;;;;;;;5.43;32.28;94561.22;2051498;70;20055;-73
2023/02/10 10:03:15;;;;;;;;;;;;;;;5.81;32.28;94561.84;2067058;69;20127;-72
2023/02/10 10:05:53;;;;;;;;;;;;;;;6.11;32.47;94562.34;2052207;70;20094;-72
2023/02/10 10:08:18;;;;;;;;;;;;;;;4.80;32.71;94560.63;2052353;70;20130;-71
2023/02/10 10:10:45;;;;;;;;;;;;;;;5.50;31.26;94558.56;2051926;70;20093;-72
2023/02/10 10:13:13;;;;;;;;;;;;;;;6.00;32.04;94559.75;2055415;69;20054;-74
2023/02/10 10:15:44;;;;;;;;;;;;;;;6.45;30.95;94561.69;2055542;70;20105;-73
2023/02/10 10:18:12;;;;;;;;;;;;;;;5.82;30.14;94552.94;2055630;70;20058;-73
2023/02/10 10:20:45;;;;;;;;;;;;;;;7.11;30.23;94553.16;2055496;70;20082;-72
2023/02/10 10:23:20;;;;;;;;;;;;;;;8.31;29.46;94555.28;2055321;69;20116;-73
2023/02/10 10:26:03;;;;;;;;;;;;;;;8.17;29.74;94557.44;2055343;70;20054;-72
2023/02/10 10:28:32;;;;;;;;;;;;;;;7.89;27.08;94556.13;2055423;70;20125;-73
2023/02/10 10:31:02;;;;;;;;;;;;;;;8.84;28.17;94552.03;2054901;70;20057;-70
2023/02/10 10:33:43;;;;;;;;;;;;;;;9.10;27.89;94551.75;2054909;70;20115;-72
2023/02/10 10:36:17;;;;;;;;;;;;;;;8.29;28.05;94553.03;2055556;70;20429;-72
2023/02/10 10:38:47;;;;;;;;;;;;;;;9.39;26.27;94549.59;2055399;70;20054;-71
2023/02/10 10:41:14;;;;;;;;;;;;;;;9.75;26.45;94551.50;2054246;70;20480;-71
2023/02/10 10:43:46;;;;;;;;;;;;;;;8.49;24.90;94550.75;2052107;69;20172;-72
2023/02/10 10:46:16;;;;;;;;;;;;;;;9.05;25.86;94538.63;2068353;69;20058;-72
2023/02/10 10:48:42;;;;;;;;;;;;;;;9.18;25.07;94542.63;2071188;69;20050;-73
2023/02/10 10:51:08;;;;;;;;;;;;;;;10.78;25.29;94530.59;2055471;70;20050;-72
2023/02/10 10:53:38;;;;;;;;;;;;;;;11.33;24.84;94532.59;2052522;70;20457;-72
2023/02/10 10:56:06;;;;;;;;;;;;;;;9.86;25.27;94523.03;2051915;69;20078;-72
2023/02/10 10:58:36;;;;;;;;;;;;;;;11.60;24.07;94518.69;2052019;70;20135;-71
2023/02/10 11:01:03;;;;;;;;;;;;;;;10.16;22.90;94507.41;2052120;70;20433;-73
2023/02/10 11:03:29;;;;;;;;;;;;;;;11.50;24.15;94501.66;2054408;70;20141;-72
2023/02/10 11:05:59;;;;;;;;;;;;;;;11.98;22.20;94503.56;2055256;70;20050;-72
2023/02/10 11:08:38;;;;;;;;;;;;;;;11.92;21.24;94495.34;2055272;70;20043;-71
2023/02/10 11:11:04;;;;;;;;;;;;;;;13.18;21.24;94502.81;2053134;70;20061;-72
2023/02/10 11:13:31;;;;;;;;;;;;;;;13.53;20.93;94496.38;2052110;70;20124;-74
2023/02/10 11:16:04;;;;;;;;;;;;;;;13.86;20.36;94496.81;2051993;70;20058;-73
2023/02/10 11:18:31;;;;;;;;;;;;;;;13.49;19.83;94493.97;2051984;70;20058;-73
2023/02/10 11:21:01;;;;;;;;;;;;;;;14.09;18.20;94485.09;2052161;70;20138;-75
2023/02/10 11:23:28;;;;;;;;;;;;;;;17.68;16.83;94485.16;2052163;70;20102;-72
2023/02/10 11:26:04;;;;;;;;;;;;;;;15.65;17.72;94469.56;2052212;70;20141;-73
2023/02/10 11:28:31;;;;;;;;;;;;;;;16.85;17.24;94472.03;2052314;70;20059;-73
2023/02/10 11:31:01;;;;;;;;;;;;;;;17.93;15.63;94463.94;2051972;70;20094;-73
2023/02/10 11:33:33;;;;;;;;;;;;;;;18.04;16.00;94466.03;2051935;70;20482;-73
2023/02/10 11:36:06;;;;;;;;;;;;;;;18.36;17.12;94455.09;2050858;70;20058;-74
2023/02/10 11:38:33;;;;;;;;;;;;;;;19.24;15.11;94458.84;2052014;70;20096;-75
2023/02/10 11:41:01;;;;;;;;;;;;;;;20.00;16.67;94463.75;2055874;69;20047;-73
2023/02/10 11:43:39;;;;;;;;;;;;;;;21.12;15.18;94465.16;2074886;69;20052;-73
2023/02/10 11:46:09;;;;;;;;;;;;;;;22.84;14.22;94461.00;2075330;69;20150;-75
2023/02/10 11:48:34;;;;;;;;;;;;;;;22.89;13.69;94456.19;2075357;69;20151;-74
2023/02/10 11:51:01;;;;;;;;;;;;;;;24.12;13.87;94443.88;2058538;69;20198;-76
2023/02/10 11:53:28;;;;;;;;;;;;;;;23.79;13.31;94446.22;2052451;69;20053;-74
2023/02/10 11:56:16;;;;;;;;;;;;;;;25.28;12.68;94450.91;2052341;70;20214;-75
2023/02/10 11:59:10;;;;;;;;;;;;;;;20.42;14.52;94438.75;2052645;70;20058;-74
2023/02/10 12:01:39;;;;;;;;;;;;;;;22.20;13.55;94439.53;2056846;69;20067;-77
2023/02/10 12:04:17;;;;;;;;;;;;;;;22.42;12.21;94434.03;2055267;70;20070;-76
2023/02/10 12:06:53;;;;;;;;;;;;;;;23.45;12.89;94439.06;2055730;70;20060;-76
2023/02/10 12:09:34;;;;;;;;;;;;;;;23.19;11.61;94438.75;2055963;69;20050;-77
2023/02/10 12:12:14;;;;;;;;;;;;;;;23.87;12.20;94417.06;2053784;70;20046;-76
2023/02/10 12:14:59;;;;;;;;;;;;;;;25.96;10.86;94422.81;2052429;70;20066;-77
2023/02/10 12:17:43;;;;;;;;;;;;;;;23.61;11.84;94425.38;2052381;70;20074;-77
2023/02/10 12:20:25;;;;;;;;;;;;;;;24.82;12.69;94416.91;2052655;70;20062;-77
2023/02/10 12:22:56;;;;;;;;;;;;;;;26.20;11.41;94424.94;2065538;69;20136;-77
2023/02/10 12:25:27;;;;;;;;;;;;;;;27.33;10.73;94412.19;2052360;70;20128;-77
2023/02/10 12:28:01;;;;;;;;;;;;;;;27.02;10.11;94407.75;2052267;69;20055;-76
2023/02/10 12:30:30;;;;;;;;;;;;;;;23.67;12.17;94407.63;2055762;70;20057;-77
2023/02/10 12:33:18;;;;;;;;;;;;;;;22.97;12.20;94404.09;2055715;70;20069;-76
2023/02/10 12:35:44;;;;;;;;;;;;;;;25.43;11.72;94403.09;2054231;69;20046;-77
2023/02/10 12:38:28;;;;;;;;;;;;;;;24.61;11.59;94397.47;2052324;70;20120;-77
2023/02/10 12:40:59;;;;;;;;;;;;;;;23.96;13.36;94392.97;2052310;69;20120;-76
2023/02/10 12:43:25;;;;;;;;;;;;;;;23.68;12.69;94403.34;2052369;70;20051;-76
2023/02/10 12:46:06;;;;;;;;;;;;;;;22.03;12.83;94392.13;2051919;70;20054;-75
2023/02/10 12:48:41;;;;;;;;;;;;;;;20.80;13.27;94388.50;2052349;70;20054;-74
2023/02/10 12:51:07;;;;;;;;;;;;;;;22.29;12.99;94386.13;2052348;70;20494;-73